Airport View

Enter AWOS ICAO identifier for current METAR.

ex. KFNL

KPSO 250235Z AUTO 26003KT 10SM CLR 12/M12 A3001 RMK AO2 T01201120

25 May 2020 02:49

Frequency: 127.175

Phone: 970-731-0365

Other Area AWOS: KCPW - KDRO - KRCV - KTEX

TAF KALS 242341Z 2500/2524 27015G25KT P6SM BKN100 BKN250 FM250300 01016G26KT P6SM BKN100 FM250800 06008KT P6SM BKN100 FM251000 29005KT P6SM SCT050 BKN100 FM251700 03010KT P6SM SCT050 BKN100